Time;durP1;ratioP1;P1;durP2;ratioP2;P2;SDS_P1;SDS_P2;PMS_P1;PMS_P2;Temp;Humidity;BMP_temperature;BMP_pressure;BME280_temperature;BME280_humidity;BME280_pressure;Samples;Min_cycle;Max_cycle;Signal;HPM_P1;HPM_P2
2023/05/10 00:00:27;;;;;;;7.90;6.97;;;22.80;52.30;;;;;;5089021;28;20158;-60
2023/05/10 00:02:53;;;;;;;8.63;6.90;;;22.70;52.20;;;;;;5088100;28;20047;-62
2023/05/10 00:05:19;;;;;;;7.70;6.88;;;22.70;52.20;;;;;;5089600;28;20028;-61
2023/05/10 00:07:44;;;;;;;7.25;6.55;;;22.70;52.80;;;;;;5089135;28;20047;-61
2023/05/10 00:10:11;;;;;;;7.22;6.53;;;22.70;52.20;;;;;;5090653;28;20027;-61
2023/05/10 00:12:37;;;;;;;7.07;6.20;;;22.70;52.20;;;;;;5089677;28;20428;-60
2023/05/10 00:15:03;;;;;;;8.73;6.60;;;22.70;52.20;;;;;;5089090;28;20060;-60
2023/05/10 00:17:29;;;;;;;7.93;6.85;;;22.70;52.20;;;;;;5085230;28;20032;-60
2023/05/10 00:19:55;;;;;;;7.45;6.68;;;22.70;52.20;;;;;;5091290;28;20020;-60
2023/05/10 00:22:21;;;;;;;7.50;6.70;;;22.70;52.20;;;;;;5089815;28;20538;-61
2023/05/10 00:24:47;;;;;;;7.90;6.90;;;22.70;52.20;;;;;;5090517;28;20392;-60
2023/05/10 00:27:12;;;;;;;7.15;6.20;;;22.70;52.20;;;;;;5091194;28;20043;-59
2023/05/10 00:29:39;;;;;;;7.35;6.60;;;22.70;52.30;;;;;;5071526;28;20043;-61
2023/05/10 00:32:04;;;;;;;7.30;6.60;;;22.70;52.30;;;;;;5090092;28;20447;-61
2023/05/10 00:34:30;;;;;;;7.85;6.82;;;22.70;52.30;;;;;;5088614;28;20068;-61
2023/05/10 00:36:56;;;;;;;8.10;6.90;;;22.70;52.30;;;;;;5071555;28;20474;-62
2023/05/10 00:39:22;;;;;;;7.45;6.65;;;22.70;52.30;;;;;;5071284;28;20030;-64
2023/05/10 00:41:48;;;;;;;7.47;6.78;;;22.70;52.30;;;;;;5072054;28;20366;-62
2023/05/10 00:44:15;;;;;;;8.55;6.32;;;22.70;52.30;;;;;;5071331;28;20020;-64
2023/05/10 00:46:41;;;;;;;8.00;7.07;;;22.70;52.30;;;;;;5072677;28;20052;-61
2023/05/10 00:49:07;;;;;;;8.07;7.28;;;22.70;52.30;;;;;;5071553;28;20099;-61
2023/05/10 00:51:33;;;;;;;7.78;6.95;;;22.70;52.40;;;;;;5070188;28;20024;-60
2023/05/10 00:53:59;;;;;;;8.57;7.40;;;22.70;52.40;;;;;;5071202;28;20105;-61
2023/05/10 00:56:26;;;;;;;7.68;6.88;;;22.70;53.00;;;;;;5072200;28;20027;-61
2023/05/10 00:58:52;;;;;;;7.90;7.10;;;22.70;52.40;;;;;;5090074;28;20027;-61
2023/05/10 01:01:19;;;;;;;8.05;7.25;;;22.70;52.50;;;;;;5089141;28;20462;-62
2023/05/10 01:03:46;;;;;;;8.60;7.70;;;22.70;52.50;;;;;;5090346;28;20126;-62
2023/05/10 01:06:12;;;;;;;8.27;7.45;;;22.60;52.40;;;;;;5088676;28;20095;-64
2023/05/10 01:08:39;;;;;;;8.02;7.22;;;22.70;52.50;;;;;;5088906;28;20055;-62
2023/05/10 01:11:05;;;;;;;8.05;7.25;;;22.60;52.50;;;;;;5089131;28;20035;-65
2023/05/10 01:13:37;;;;;;;8.68;7.78;;;22.60;52.50;;;;;;5070634;28;20028;-63
2023/05/10 01:16:03;;;;;;;8.10;7.28;;;22.60;52.50;;;;;;5091772;28;20032;-62
2023/05/10 01:18:32;;;;;;;8.75;7.85;;;22.60;52.50;;;;;;5070214;28;20024;-61
2023/05/10 01:21:29;;;;;;;8.48;7.68;;;22.60;52.50;;;;;;5089179;28;20093;-61
2023/05/10 01:24:11;;;;;;;8.60;7.70;;;22.60;52.60;;;;;;5088623;28;20128;-61
2023/05/10 01:26:58;;;;;;;8.63;7.72;;;22.60;52.60;;;;;;5089390;28;20020;-61
2023/05/10 01:29:59;;;;;;;9.15;7.63;;;22.60;52.70;;;;;;5067892;28;20086;-65
2023/05/10 01:32:38;;;;;;;9.45;8.45;;;22.60;52.70;;;;;;5070288;28;20047;-65
2023/05/10 01:35:32;;;;;;;9.27;8.30;;;22.60;52.70;;;;;;5089357;28;20392;-61
2023/05/10 01:38:37;;;;;;;8.82;7.93;;;22.60;52.80;;;;;;5069141;28;20035;-63
2023/05/10 01:41:27;;;;;;;7.95;7.15;;;22.60;52.70;;;;;;5071029;28;20073;-62
2023/05/10 01:44:09;;;;;;;8.57;7.60;;;22.60;52.80;;;;;;5071312;28;20058;-62
2023/05/10 01:46:37;;;;;;;8.48;7.63;;;22.60;52.80;;;;;;5053878;28;20052;-61
2023/05/10 01:49:11;;;;;;;8.07;7.28;;;22.60;52.80;;;;;;5044966;28;20336;-62
2023/05/10 01:51:51;;;;;;;7.78;6.95;;;22.60;52.90;;;;;;5045634;28;20080;-63
2023/05/10 01:54:21;;;;;;;8.55;7.63;;;22.60;52.80;;;;;;5063468;28;20047;-62
2023/05/10 01:56:54;;;;;;;8.60;7.70;;;22.60;52.90;;;;;;5047275;28;20053;-62
2023/05/10 01:59:22;;;;;;;8.43;7.50;;;22.50;52.80;;;;;;5044972;28;20032;-61
2023/05/10 02:01:50;;;;;;;8.75;7.85;;;22.60;52.90;;;;;;5047412;28;20283;-63
2023/05/10 02:04:19;;;;;;;8.70;7.75;;;22.60;52.90;;;;;;5043485;28;20044;-62
2023/05/10 02:06:47;;;;;;;7.63;6.78;;;22.60;52.90;;;;;;5045316;28;20087;-62
2023/05/10 02:09:14;;;;;;;8.98;7.45;;;22.50;52.90;;;;;;5046945;28;20305;-62
2023/05/10 02:11:42;;;;;;;7.55;6.78;;;22.60;53.00;;;;;;5044570;28;20567;-63
2023/05/10 02:14:10;;;;;;;7.38;6.28;;;22.50;52.90;;;;;;5044204;28;20052;-61
2023/05/10 02:16:38;;;;;;;8.40;7.50;;;22.50;52.90;;;;;;5046251;28;20025;-63
2023/05/10 02:19:06;;;;;;;8.32;7.00;;;22.50;52.90;;;;;;5047896;28;20029;-61
2023/05/10 02:21:33;;;;;;;9.32;6.85;;;22.60;53.00;;;;;;5047951;28;20052;-61
2023/05/10 02:24:02;;;;;;;7.55;6.63;;;22.50;53.00;;;;;;5046830;28;20119;-61
2023/05/10 02:26:30;;;;;;;7.22;6.53;;;22.50;52.90;;;;;;5047812;28;20039;-63
2023/05/10 02:28:58;;;;;;;6.88;6.10;;;22.60;53.00;;;;;;5046056;28;20504;-61
2023/05/10 02:31:24;;;;;;;8.30;7.05;;;22.50;52.90;;;;;;5045492;28;20090;-63
2023/05/10 02:33:51;;;;;;;7.45;6.55;;;22.50;52.90;;;;;;5046910;28;20044;-63
2023/05/10 02:36:18;;;;;;;6.97;6.20;;;22.50;53.00;;;;;;5046398;28;20360;-61
2023/05/10 02:38:45;;;;;;;7.03;5.63;;;22.50;52.90;;;;;;5046371;28;20035;-61
2023/05/10 02:41:12;;;;;;;7.65;6.80;;;22.50;53.00;;;;;;5047396;28;20108;-61
2023/05/10 02:43:41;;;;;;;7.18;6.45;;;22.50;53.00;;;;;;5048424;28;20040;-64
2023/05/10 02:46:07;;;;;;;7.05;6.25;;;22.50;52.90;;;;;;5063191;28;20088;-64
2023/05/10 02:48:35;;;;;;;7.15;6.43;;;22.50;53.00;;;;;;5070282;28;20439;-62
2023/05/10 02:51:05;;;;;;;7.53;6.68;;;22.50;52.90;;;;;;5069439;28;20030;-64
2023/05/10 02:53:34;;;;;;;7.25;6.40;;;22.50;52.90;;;;;;5074044;28;20316;-61
2023/05/10 02:56:06;;;;;;;8.10;7.05;;;22.50;53.00;;;;;;5072697;28;20455;-64
2023/05/10 02:58:33;;;;;;;7.50;6.72;;;22.50;53.00;;;;;;5071822;28;20090;-63
2023/05/10 03:01:00;;;;;;;7.38;6.53;;;22.50;53.00;;;;;;5073012;28;20108;-63
2023/05/10 03:03:26;;;;;;;7.35;6.63;;;22.50;52.90;;;;;;5091884;28;20035;-63
2023/05/10 03:05:55;;;;;;;7.45;6.70;;;22.50;52.90;;;;;;5074315;28;20032;-62
2023/05/10 03:08:23;;;;;;;8.32;6.95;;;22.50;53.00;;;;;;5070525;28;20036;-64
2023/05/10 03:11:15;;;;;;;8.27;7.25;;;22.50;52.90;;;;;;5093174;28;20024;-61
2023/05/10 03:13:50;;;;;;;7.55;6.43;;;22.50;52.90;;;;;;5023317;28;20036;-62
2023/05/10 03:16:24;;;;;;;9.45;6.72;;;22.50;52.90;;;;;;5073611;28;20048;-62
2023/05/10 03:19:07;;;;;;;6.88;6.18;;;22.50;52.90;;;;;;5072233;28;20048;-63
2023/05/10 03:21:36;;;;;;;7.60;6.80;;;22.40;52.90;;;;;;5073822;28;20082;-61
2023/05/10 03:24:08;;;;;;;8.05;6.63;;;22.40;52.90;;;;;;5073310;28;20200;-64
2023/05/10 03:26:36;;;;;;;7.97;6.82;;;22.50;52.90;;;;;;5072074;28;20099;-61
2023/05/10 03:29:09;;;;;;;7.78;6.97;;;22.40;52.90;;;;;;5073099;28;20046;-61
2023/05/10 03:31:35;;;;;;;7.38;6.60;;;22.50;52.90;;;;;;5073141;28;20020;-61
2023/05/10 03:34:01;;;;;;;8.25;6.70;;;22.40;52.80;;;;;;5090286;28;20054;-64
2023/05/10 03:36:27;;;;;;;7.63;6.70;;;22.50;52.80;;;;;;5073540;28;20093;-61
2023/05/10 03:38:54;;;;;;;9.10;6.47;;;22.40;53.40;;;;;;5073393;28;20032;-63
2023/05/10 03:41:21;;;;;;;6.80;6.10;;;22.40;52.70;;;;;;5058154;28;20138;-62
2023/05/10 03:43:47;;;;;;;8.75;6.28;;;22.40;52.80;;;;;;5071488;28;20016;-62
2023/05/10 03:46:13;;;;;;;6.95;6.22;;;22.50;52.90;;;;;;5090065;28;20046;-62
2023/05/10 03:48:39;;;;;;;6.88;6.18;;;22.40;52.80;;;;;;5073103;28;20331;-61
2023/05/10 03:51:05;;;;;;;7.47;6.28;;;22.40;52.80;;;;;;5072326;28;20027;-62
2023/05/10 03:53:30;;;;;;;7.93;6.65;;;22.50;52.90;;;;;;5070433;28;21637;-64
2023/05/10 03:55:56;;;;;;;8.73;6.65;;;22.40;52.80;;;;;;5066463;28;20036;-61
2023/05/10 03:58:22;;;;;;;8.35;6.47;;;22.40;52.80;;;;;;5070850;28;20054;-61
2023/05/10 04:00:48;;;;;;;7.35;6.32;;;22.40;52.80;;;;;;5090643;28;20052;-61
2023/05/10 04:03:14;;;;;;;6.80;6.05;;;22.40;52.80;;;;;;5088779;28;20462;-63
2023/05/10 04:05:40;;;;;;;9.57;6.40;;;22.40;52.80;;;;;;5071875;28;20042;-63
2023/05/10 04:08:06;;;;;;;6.32;5.68;;;22.40;52.90;;;;;;5087580;28;20469;-62
2023/05/10 04:10:32;;;;;;;7.03;6.20;;;22.40;52.90;;;;;;5089724;28;20119;-60
2023/05/10 04:12:58;;;;;;;7.10;5.97;;;22.40;52.80;;;;;;5085987;28;20103;-60
2023/05/10 04:15:24;;;;;;;7.38;6.55;;;22.40;52.80;;;;;;5088855;28;20043;-60
2023/05/10 04:17:50;;;;;;;7.15;6.45;;;22.40;52.70;;;;;;5088558;28;20028;-62
2023/05/10 04:20:16;;;;;;;8.07;6.50;;;22.40;52.70;;;;;;5088673;28;20586;-61
2023/05/10 04:22:41;;;;;;;7.47;5.70;;;22.40;52.70;;;;;;5089214;28;20040;-61
2023/05/10 04:25:08;;;;;;;9.05;6.45;;;22.40;52.70;;;;;;5070949;28;20020;-60
2023/05/10 04:27:34;;;;;;;7.55;6.07;;;22.40;52.60;;;;;;5090008;28;20028;-61
2023/05/10 04:29:59;;;;;;;7.80;5.57;;;22.40;52.60;;;;;;5069707;28;20032;-60
2023/05/10 04:32:25;;;;;;;6.35;5.72;;;22.40;52.50;;;;;;5087972;28;20028;-60
2023/05/10 04:34:51;;;;;;;6.90;5.60;;;22.40;52.50;;;;;;5086706;28;20094;-60
2023/05/10 04:37:17;;;;;;;7.30;6.18;;;22.40;52.50;;;;;;5090274;28;20066;-62
2023/05/10 04:39:43;;;;;;;6.28;5.57;;;22.40;52.50;;;;;;5088845;28;20039;-60
2023/05/10 04:42:09;;;;;;;7.32;5.45;;;22.40;52.50;;;;;;5070014;28;21344;-62
2023/05/10 04:44:36;;;;;;;6.30;5.55;;;22.40;52.40;;;;;;5088346;28;20090;-62
2023/05/10 04:47:02;;;;;;;6.65;5.38;;;22.40;52.40;;;;;;5048680;28;1146338;-60
2023/05/10 04:49:29;;;;;;;7.70;6.50;;;22.40;52.40;;;;;;5090274;28;20020;-60
2023/05/10 04:51:55;;;;;;;6.18;5.55;;;22.40;52.40;;;;;;5090111;28;20050;-61
2023/05/10 04:54:21;;;;;;;6.80;5.85;;;22.30;52.30;;;;;;5089753;28;20036;-62
2023/05/10 04:56:47;;;;;;;6.68;5.60;;;22.40;52.30;;;;;;5071377;28;20054;-62
2023/05/10 04:59:13;;;;;;;7.47;6.10;;;22.40;52.30;;;;;;5071328;28;20028;-61
2023/05/10 05:01:39;;;;;;;7.60;5.57;;;22.40;52.30;;;;;;5089051;28;20034;-63
2023/05/10 05:04:05;;;;;;;7.32;5.40;;;22.30;52.30;;;;;;5090173;28;20028;-59
2023/05/10 05:06:31;;;;;;;8.40;5.68;;;22.40;52.30;;;;;;5088886;28;20032;-60
2023/05/10 05:08:57;;;;;;;8.82;6.35;;;22.30;52.30;;;;;;5087856;28;20036;-62
2023/05/10 05:11:22;;;;;;;7.85;5.70;;;22.30;52.30;;;;;;5087323;28;20107;-60
2023/05/10 05:13:48;;;;;;;7.80;6.05;;;22.30;52.30;;;;;;5090307;28;20366;-61
2023/05/10 05:16:14;;;;;;;7.32;6.30;;;22.40;52.30;;;;;;5087463;28;20084;-61
2023/05/10 05:18:40;;;;;;;6.20;5.57;;;22.40;52.30;;;;;;5088551;28;20032;-60
2023/05/10 05:21:18;;;;;;;6.90;5.53;;;22.30;52.20;;;;;;5088498;28;20020;-62
2023/05/10 05:23:44;;;;;;;7.03;5.53;;;22.30;52.20;;;;;;5071347;28;20024;-62
2023/05/10 05:26:10;;;;;;;6.75;5.38;;;22.40;52.30;;;;;;5089002;28;20394;-62
2023/05/10 05:28:37;;;;;;;7.18;5.90;;;22.40;52.30;;;;;;5088592;28;20024;-60
2023/05/10 05:31:09;;;;;;;6.40;5.35;;;22.40;52.30;;;;;;5089746;28;20169;-61
2023/05/10 05:33:35;;;;;;;5.82;5.18;;;22.30;52.20;;;;;;5088382;28;21526;-60
2023/05/10 05:36:03;;;;;;;6.78;5.18;;;22.40;52.30;;;;;;5088738;28;20045;-62
2023/05/10 05:38:28;;;;;;;7.65;5.63;;;22.30;52.20;;;;;;5088447;28;20019;-59
2023/05/10 05:40:54;;;;;;;7.05;4.95;;;22.30;52.20;;;;;;5089153;28;20273;-60
2023/05/10 05:43:20;;;;;;;6.20;4.78;;;22.30;52.20;;;;;;5071150;28;20384;-61
2023/05/10 05:45:46;;;;;;;6.35;4.97;;;22.30;52.20;;;;;;5089015;28;20260;-63
2023/05/10 05:48:12;;;;;;;7.47;5.32;;;22.40;52.30;;;;;;5088458;28;20118;-63
2023/05/10 05:50:38;;;;;;;7.05;5.03;;;22.30;52.20;;;;;;5089298;28;20046;-60
2023/05/10 05:53:03;;;;;;;6.13;4.97;;;22.40;52.30;;;;;;5087186;28;20400;-61
2023/05/10 05:55:31;;;;;;;5.95;5.20;;;22.30;52.20;;;;;;5087963;28;20067;-62
2023/05/10 05:57:57;;;;;;;6.28;5.38;;;22.40;52.30;;;;;;5088621;28;20123;-63
2023/05/10 06:00:23;;;;;;;5.88;4.78;;;22.30;52.20;;;;;;5088430;28;20031;-60
2023/05/10 06:02:49;;;;;;;6.47;5.68;;;22.40;52.30;;;;;;5086918;28;20028;-62
2023/05/10 06:05:15;;;;;;;6.30;5.32;;;22.30;52.20;;;;;;5086077;28;20046;-60
2023/05/10 06:07:44;;;;;;;6.70;5.43;;;22.40;52.30;;;;;;5088058;28;20039;-62
2023/05/10 06:10:10;;;;;;;5.97;5.22;;;22.40;52.30;;;;;;5088109;28;20440;-61
2023/05/10 06:12:36;;;;;;;7.03;5.35;;;22.40;52.30;;;;;;5087755;28;20467;-60
2023/05/10 06:15:03;;;;;;;6.70;5.05;;;22.40;52.30;;;;;;5087871;28;20036;-61
2023/05/10 06:17:28;;;;;;;5.50;4.85;;;22.40;52.30;;;;;;5087314;28;20032;-60
2023/05/10 06:19:55;;;;;;;5.47;4.93;;;22.40;52.30;;;;;;5087974;28;20093;-61
2023/05/10 06:22:22;;;;;;;5.90;4.90;;;22.40;52.30;;;;;;5088617;28;20134;-61
2023/05/10 06:24:49;;;;;;;6.05;5.30;;;22.40;52.30;;;;;;5087990;28;20020;-60
2023/05/10 06:27:14;;;;;;;7.53;5.25;;;22.40;52.30;;;;;;5087577;28;20080;-61
2023/05/10 06:29:40;;;;;;;7.80;5.20;;;22.40;52.30;;;;;;5088125;28;20669;-61
2023/05/10 06:32:06;;;;;;;9.23;5.80;;;22.40;52.30;;;;;;5087584;28;20052;-60
2023/05/10 06:34:32;;;;;;;7.13;5.40;;;22.30;52.20;;;;;;5070296;28;20064;-61
2023/05/10 06:36:58;;;;;;;7.22;5.13;;;22.30;52.30;;;;;;5090717;28;20111;-62
2023/05/10 06:39:24;;;;;;;6.20;4.90;;;22.40;52.30;;;;;;5091380;28;20051;-62
2023/05/10 06:41:50;;;;;;;7.05;5.57;;;22.30;52.30;;;;;;5090936;28;20354;-61
2023/05/10 06:44:18;;;;;;;7.32;5.82;;;22.30;52.30;;;;;;5072397;28;20020;-61
2023/05/10 06:46:44;;;;;;;8.68;5.88;;;22.40;52.40;;;;;;5089527;28;20472;-60
2023/05/10 06:49:10;;;;;;;6.55;5.03;;;22.30;52.30;;;;;;5090884;28;20016;-60
2023/05/10 06:51:36;;;;;;;7.22;5.70;;;22.30;52.40;;;;;;5090715;28;20047;-61
2023/05/10 06:54:02;;;;;;;5.90;5.18;;;22.30;52.30;;;;;;5071170;28;20024;-59
2023/05/10 06:56:28;;;;;;;9.82;5.28;;;22.30;52.40;;;;;;5088421;28;20523;-63
2023/05/10 06:58:54;;;;;;;9.00;5.50;;;22.30;52.40;;;;;;5091523;28;20107;-61
2023/05/10 07:01:20;;;;;;;8.13;6.03;;;22.30;52.40;;;;;;5090657;28;20091;-61
2023/05/10 07:03:46;;;;;;;7.75;6.18;;;22.40;52.50;;;;;;5090313;28;20025;-61
2023/05/10 07:06:17;;;;;;;9.10;5.50;;;22.30;52.40;;;;;;5082664;28;20085;-61
2023/05/10 07:08:43;;;;;;;8.57;5.60;;;22.30;52.40;;;;;;5066522;28;20028;-63
2023/05/10 07:11:11;;;;;;;8.18;5.30;;;22.40;52.50;;;;;;5088596;28;20174;-60
2023/05/10 07:13:38;;;;;;;6.88;4.93;;;22.40;52.50;;;;;;5082876;28;20024;-62
2023/05/10 07:16:06;;;;;;;8.43;5.85;;;22.40;52.50;;;;;;5087527;28;20490;-61
2023/05/10 07:18:31;;;;;;;7.82;5.53;;;22.40;52.50;;;;;;5090428;28;20024;-60
2023/05/10 07:20:58;;;;;;;8.32;5.63;;;22.40;52.60;;;;;;5073427;28;20080;-61
2023/05/10 07:23:23;;;;;;;7.53;5.72;;;22.30;52.50;;;;;;5072757;28;20032;-63
2023/05/10 07:25:53;;;;;;;7.55;5.88;;;22.40;52.60;;;;;;5089656;28;20029;-61
2023/05/10 07:28:20;;;;;;;8.40;6.15;;;22.40;52.60;;;;;;5086416;28;20050;-60
2023/05/10 07:30:46;;;;;;;6.72;5.50;;;22.40;52.60;;;;;;5068226;28;20028;-62
2023/05/10 07:33:14;;;;;;;8.55;5.97;;;22.40;52.60;;;;;;5087434;28;20032;-59
2023/05/10 07:35:39;;;;;;;7.60;5.70;;;22.40;52.50;;;;;;5089710;28;20368;-62
2023/05/10 07:38:05;;;;;;;7.50;5.45;;;22.40;52.50;;;;;;5086481;28;20063;-63
2023/05/10 07:40:31;;;;;;;7.13;5.63;;;22.40;52.50;;;;;;5090394;28;20073;-62
2023/05/10 07:42:57;;;;;;;8.57;6.13;;;22.40;52.50;;;;;;5053355;28;21951;-61
2023/05/10 07:45:23;;;;;;;7.22;6.00;;;22.40;52.50;;;;;;5086873;28;20028;-61
2023/05/10 07:47:50;;;;;;;8.68;6.18;;;22.40;52.50;;;;;;5089249;28;20416;-60
2023/05/10 07:50:15;;;;;;;8.05;6.15;;;22.40;52.40;;;;;;5088102;28;20024;-59
2023/05/10 07:52:41;;;;;;;6.80;5.47;;;22.40;52.40;;;;;;5086784;28;20458;-59
2023/05/10 07:55:08;;;;;;;8.40;6.32;;;22.40;52.40;;;;;;5091699;28;20377;-61
2023/05/10 07:57:34;;;;;;;8.63;6.68;;;22.40;52.40;;;;;;5087101;28;20039;-62
2023/05/10 08:00:00;;;;;;;8.73;6.13;;;22.40;52.40;;;;;;5090673;28;20043;-63
2023/05/10 08:02:26;;;;;;;8.07;6.65;;;22.50;52.50;;;;;;5089017;28;20020;-63
2023/05/10 08:04:52;;;;;;;9.75;6.72;;;22.50;52.50;;;;;;5091575;28;20492;-60
2023/05/10 08:07:18;;;;;;;8.27;6.10;;;22.50;52.50;;;;;;5093313;28;20043;-60
2023/05/10 08:09:44;;;;;;;8.65;6.40;;;22.50;52.50;;;;;;5076364;28;20028;-59
2023/05/10 08:12:10;;;;;;;10.07;6.40;;;22.50;52.50;;;;;;5093659;28;20371;-61
2023/05/10 08:14:36;;;;;;;7.53;6.18;;;22.50;52.50;;;;;;5074960;28;20040;-62
2023/05/10 08:17:03;;;;;;;8.02;6.45;;;22.50;52.50;;;;;;5092499;28;20028;-61
2023/05/10 08:19:29;;;;;;;9.90;6.47;;;22.50;52.40;;;;;;5093984;28;20028;-62
2023/05/10 08:21:57;;;;;;;9.50;6.75;;;22.50;52.40;;;;;;5093456;28;20028;-62
2023/05/10 08:24:23;;;;;;;9.25;6.53;;;22.50;52.40;;;;;;5091673;28;20122;-62
2023/05/10 08:26:49;;;;;;;7.55;6.25;;;22.50;52.30;;;;;;5092951;28;20024;-61
2023/05/10 08:29:15;;;;;;;8.38;6.35;;;22.50;52.20;;;;;;5093079;28;20020;-61
2023/05/10 08:31:41;;;;;;;8.35;6.18;;;22.50;52.20;;;;;;5093904;28;20506;-63
2023/05/10 08:34:06;;;;;;;7.85;5.90;;;22.50;52.10;;;;;;5093408;28;20028;-62
2023/05/10 08:36:32;;;;;;;7.45;6.53;;;22.50;52.10;;;;;;5093492;28;20117;-60
2023/05/10 08:38:58;;;;;;;7.10;5.82;;;22.50;52.00;;;;;;5090932;28;20425;-61
2023/05/10 08:41:28;;;;;;;7.53;6.22;;;22.60;52.00;;;;;;5092486;28;20496;-62
2023/05/10 08:43:54;;;;;;;7.07;5.40;;;22.50;51.90;;;;;;5093385;28;20118;-62
2023/05/10 08:46:21;;;;;;;7.80;5.88;;;22.60;51.90;;;;;;5092979;28;20148;-60
2023/05/10 08:48:51;;;;;;;6.53;5.68;;;22.60;51.90;;;;;;5092105;28;20392;-62
2023/05/10 08:51:21;;;;;;;6.45;5.70;;;22.60;51.80;;;;;;5092083;28;20103;-62
2023/05/10 08:53:47;;;;;;;8.00;5.50;;;22.60;51.80;;;;;;5089964;28;20030;-61
2023/05/10 08:56:15;;;;;;;6.80;5.13;;;22.50;51.60;;;;;;5092766;28;20040;-60
2023/05/10 08:58:41;;;;;;;6.68;5.25;;;22.50;51.60;;;;;;5075189;28;20058;-60
2023/05/10 09:01:08;;;;;;;6.53;5.10;;;22.60;51.60;;;;;;5093147;28;20020;-61
2023/05/10 09:03:35;;;;;;;6.40;5.15;;;22.60;51.50;;;;;;5093055;28;20024;-60
2023/05/10 09:06:00;;;;;;;5.50;4.93;;;22.60;51.50;;;;;;5092476;28;20116;-61
2023/05/10 09:08:27;;;;;;;5.65;4.25;;;22.60;51.40;;;;;;5092421;28;20020;-60
2023/05/10 09:10:54;;;;;;;5.65;4.32;;;22.60;51.40;;;;;;5092670;28;20028;-61
2023/05/10 09:13:21;;;;;;;5.15;4.22;;;22.60;51.30;;;;;;5092229;28;20023;-63
2023/05/10 09:15:48;;;;;;;5.15;3.88;;;22.60;51.30;;;;;;5092798;28;20079;-61
2023/05/10 09:18:14;;;;;;;4.85;4.00;;;22.60;51.20;;;;;;5089483;28;20085;-63
2023/05/10 09:20:40;;;;;;;4.53;4.03;;;22.60;51.20;;;;;;5090781;28;20034;-61
2023/05/10 09:23:07;;;;;;;4.20;3.80;;;22.60;51.10;;;;;;5092566;28;20442;-60
2023/05/10 09:25:33;;;;;;;5.57;3.75;;;22.60;51.20;;;;;;5092745;28;20056;-61
2023/05/10 09:27:59;;;;;;;4.43;3.40;;;22.60;51.20;;;;;;5091662;28;20047;-60
2023/05/10 09:30:30;;;;;;;6.10;4.00;;;22.60;51.20;;;;;;5092619;28;20039;-60
2023/05/10 09:32:57;;;;;;;4.55;3.75;;;22.70;51.30;;;;;;5090094;28;20062;-61
2023/05/10 09:35:25;;;;;;;4.80;3.33;;;22.70;51.30;;;;;;5089237;28;20036;-61
2023/05/10 09:37:53;;;;;;;4.35;3.50;;;22.70;51.30;;;;;;5073084;28;20044;-60
2023/05/10 09:40:21;;;;;;;4.70;3.50;;;22.70;51.30;;;;;;5091181;28;20031;-56
2023/05/10 09:42:59;;;;;;;4.00;3.60;;;22.70;51.20;;;;;;5091928;28;20082;-61
2023/05/10 09:45:33;;;;;;;3.45;3.10;;;22.70;51.20;;;;;;5091403;28;20116;-60
2023/05/10 09:48:00;;;;;;;4.22;3.35;;;22.70;51.10;;;;;;5074144;28;20063;-61
2023/05/10 09:50:26;;;;;;;2.85;2.50;;;22.70;51.10;;;;;;5089891;28;20024;-60
2023/05/10 09:53:00;;;;;;;4.40;2.95;;;22.70;51.10;;;;;;5073459;28;20020;-59
2023/05/10 09:55:50;;;;;;;;;;;22.70;51.00;;;;;;5070365;28;20040;-59
2023/05/10 09:58:16;;;;;;;9.27;2.97;;;22.70;50.90;;;;;;5087912;28;19965;-60
2023/05/10 10:00:43;;;;;;;4.38;3.65;;;22.70;50.90;;;;;;5090833;28;20487;-62
2023/05/10 10:03:18;;;;;;;9.32;6.13;;;22.70;50.90;;;;;;5091070;28;20204;-61
2023/05/10 10:05:44;;;;;;;;;;;22.80;51.90;;;;;;5090988;28;20112;-61
2023/05/10 10:08:12;;;;;;;11.88;7.85;;;22.80;52.90;;;;;;5090636;28;19919;-63
2023/05/10 10:10:40;;;;;;;12.43;7.75;;;22.80;54.20;;;;;;5091965;28;20152;-60
2023/05/10 10:13:06;;;;;;;15.38;7.80;;;22.90;55.40;;;;;;5091168;28;20106;-63
2023/05/10 10:15:33;;;;;;;13.80;7.18;;;22.90;55.70;;;;;;5085461;28;20033;-61
2023/05/10 10:17:59;;;;;;;10.07;6.45;;;22.90;55.80;;;;;;5084863;28;20024;-62
2023/05/10 10:20:26;;;;;;;9.35;6.88;;;22.90;55.60;;;;;;5084935;28;20370;-62
2023/05/10 10:22:52;;;;;;;8.73;6.32;;;23.00;55.20;;;;;;5088229;28;20051;-61
2023/05/10 10:25:21;;;;;;;10.23;6.55;;;22.90;54.70;;;;;;5087264;28;20114;-62
2023/05/10 10:27:53;;;;;;;7.07;4.80;;;23.00;54.40;;;;;;5086256;28;20020;-62
2023/05/10 10:30:22;;;;;;;6.72;4.93;;;23.00;54.00;;;;;;5090855;28;20074;-64
2023/05/10 10:32:47;;;;;;;6.45;4.50;;;22.90;53.70;;;;;;5084734;28;20071;-64
2023/05/10 10:35:14;;;;;;;7.10;4.43;;;22.90;53.30;;;;;;5089614;28;20075;-61
2023/05/10 10:37:46;;;;;;;6.45;4.03;;;22.90;53.00;;;;;;5087814;28;20032;-62
2023/05/10 10:40:26;;;;;;;6.50;4.05;;;23.00;52.70;;;;;;5068891;28;20037;-61
2023/05/10 10:42:53;;;;;;;6.55;4.30;;;23.00;52.50;;;;;;5086400;28;20032;-62
2023/05/10 10:45:21;;;;;;;6.10;4.43;;;23.00;52.30;;;;;;5070213;28;20074;-61
2023/05/10 10:47:47;;;;;;;4.47;3.75;;;23.00;52.10;;;;;;5084692;28;20116;-62
2023/05/10 10:50:12;;;;;;;4.75;3.50;;;23.00;51.90;;;;;;5086403;28;20031;-62
2023/05/10 10:52:39;;;;;;;5.68;3.47;;;23.00;51.70;;;;;;5086835;28;20477;-63
2023/05/10 10:55:24;;;;;;;5.53;4.10;;;23.00;51.50;;;;;;5086292;28;20044;-63
2023/05/10 10:57:54;;;;;;;6.88;4.10;;;23.00;51.40;;;;;;5084146;28;20024;-63
2023/05/10 11:00:30;;;;;;;8.18;5.03;;;23.00;51.20;;;;;;5088051;28;20043;-63
2023/05/10 11:03:18;;;;;;;6.30;4.40;;;23.00;51.10;;;;;;5086916;28;20046;-60
2023/05/10 11:05:47;;;;;;;6.63;4.13;;;23.00;50.90;;;;;;5087342;28;20115;-64
2023/05/10 11:08:41;;;;;;;7.13;3.78;;;23.00;50.80;;;;;;5083065;28;20020;-64
2023/05/10 11:11:07;;;;;;;4.70;3.22;;;23.00;50.60;;;;;;5073100;28;20044;-63
2023/05/10 11:13:37;;;;;;;5.35;3.67;;;23.00;50.50;;;;;;5070652;28;20889;-64
2023/05/10 11:16:25;;;;;;;5.20;3.53;;;23.00;50.40;;;;;;5089126;28;20044;-65
2023/05/10 11:19:03;;;;;;;6.35;3.58;;;23.00;50.20;;;;;;5088171;28;20027;-62
2023/05/10 11:21:31;;;;;;;4.80;3.60;;;23.10;50.10;;;;;;5090822;28;20024;-65
2023/05/10 11:23:58;;;;;;;8.90;4.07;;;23.00;50.00;;;;;;5070708;28;20496;-61
2023/05/10 11:26:25;;;;;;;5.13;3.28;;;23.00;49.90;;;;;;5089946;28;20037;-61
2023/05/10 11:28:56;;;;;;;4.28;3.15;;;23.10;49.80;;;;;;5090212;28;20381;-61
2023/05/10 11:31:22;;;;;;;4.88;3.72;;;23.00;49.70;;;;;;5090344;28;20024;-61
2023/05/10 11:33:50;;;;;;;5.63;3.78;;;23.00;49.50;;;;;;5087187;28;20024;-65
2023/05/10 11:36:18;;;;;;;6.93;3.55;;;23.10;49.50;;;;;;5086011;28;20028;-63
2023/05/10 11:38:45;;;;;;;4.18;2.85;;;23.10;49.40;;;;;;5085366;28;20024;-61
2023/05/10 11:41:12;;;;;;;3.83;2.88;;;23.10;49.30;;;;;;5089493;28;20063;-62
2023/05/10 11:43:42;;;;;;;4.78;3.08;;;23.10;49.30;;;;;;5094960;28;20024;-60
2023/05/10 11:46:12;;;;;;;4.03;2.83;;;23.10;49.20;;;;;;5095379;28;20040;-61
2023/05/10 11:48:42;;;;;;;3.60;2.65;;;23.10;49.10;;;;;;5089835;28;20028;-62
2023/05/10 11:51:09;;;;;;;4.22;3.10;;;23.10;49.10;;;;;;5096146;28;20036;-63
2023/05/10 11:53:35;;;;;;;4.75;2.97;;;23.10;49.00;;;;;;5084824;28;20027;-62
2023/05/10 11:56:08;;;;;;;3.75;2.50;;;23.10;49.00;;;;;;5090651;28;20450;-62
2023/05/10 11:58:35;;;;;;;3.33;2.83;;;23.10;49.00;;;;;;5070560;28;20044;-62
2023/05/10 12:01:01;;;;;;;4.18;2.42;;;23.10;48.90;;;;;;5073723;28;20028;-61
2023/05/10 12:03:28;;;;;;;3.40;2.60;;;23.10;49.50;;;;;;5089999;28;20458;-64
2023/05/10 12:05:55;;;;;;;4.13;2.90;;;23.10;48.80;;;;;;5092274;28;20032;-63
2023/05/10 12:08:29;;;;;;;4.13;2.80;;;23.10;48.70;;;;;;5088268;28;20059;-64
2023/05/10 12:11:05;;;;;;;3.63;2.33;;;23.10;48.70;;;;;;5083972;28;20404;-63
2023/05/10 12:13:31;;;;;;;3.58;2.50;;;23.10;48.60;;;;;;5087798;28;20105;-63
2023/05/10 12:15:58;;;;;;;4.00;2.40;;;23.10;48.60;;;;;;5089475;28;20132;-62
2023/05/10 12:18:25;;;;;;;3.33;2.17;;;23.20;48.60;;;;;;5088460;28;20032;-62
2023/05/10 12:21:02;;;;;;;2.60;2.28;;;23.10;48.40;;;;;;5089024;28;20036;-62
2023/05/10 12:23:28;;;;;;;3.25;2.00;;;23.20;48.50;;;;;;5072025;28;20372;-64
2023/05/10 12:26:01;;;;;;;2.97;2.08;;;23.10;48.30;;;;;;5087141;28;20464;-64
2023/05/10 12:28:30;;;;;;;2.78;2.20;;;23.10;48.30;;;;;;5084137;28;20093;-63
2023/05/10 12:30:59;;;;;;;2.45;1.80;;;23.20;48.30;;;;;;5084558;28;20032;-65
2023/05/10 12:33:25;;;;;;;3.63;2.25;;;23.20;48.30;;;;;;5084215;28;20043;-66
2023/05/10 12:35:56;;;;;;;4.15;2.40;;;23.20;48.20;;;;;;5073962;28;20265;-64
2023/05/10 12:38:47;;;;;;;3.60;2.28;;;23.20;48.10;;;;;;5091395;28;20036;-63
2023/05/10 12:41:18;;;;;;;2.85;1.98;;;23.20;48.00;;;;;;5072196;28;20028;-66
2023/05/10 12:43:46;;;;;;;2.33;1.90;;;23.20;48.00;;;;;;5088755;28;20032;-65
2023/05/10 12:46:18;;;;;;;6.00;2.50;;;23.20;48.00;;;;;;5090523;28;20052;-63
2023/05/10 12:48:54;;;;;;;5.32;3.05;;;23.20;48.10;;;;;;5069287;28;20032;-64
2023/05/10 12:51:26;;;;;;;5.47;3.03;;;23.30;48.10;;;;;;5090985;28;20059;-64
2023/05/10 12:53:54;;;;;;;7.85;3.17;;;23.30;48.10;;;;;;5092777;28;20035;-64